Pagrindinis puslapis
METAR-TAF:

METAR-TAF

Oro uostai :

Taba, Egiptas

platuma: 29-35-57N, ilguma: 034-46-36E, Aukštis: 749 m

METAR: trūkstamas

Laikas: 13:06 (11:06 UTC)

Prognozė

Ataskaita buvo paskelbta 6 valandos ir 6 minutes, ne 05:00 UTC
Prognozė galioja nuo 14 metu 06 UTC su 15 metu 12 UTC
Vėjas 12 kt iš Šiaurės/Šiaurės Rytų
Matomumas 10 km arba daugiau
Išsisklaidę debesys ne aukštis 2500 ft
Laikinai
nuo 14 metu 10 UTC su 14 metu 16 UTC
Matomumas: 6000 m
Su prošvaistėmis ne aukštis 2000 ft
lietus

TAF: HETB 140500Z 1406/1512 03012KT 9999 SCT025 TEMPO 1410/1416 6000 RA BKN020

Orai ataskaitas ir orų prognozės (METAR, TAF).

turimą stotys yra geltonos ir raudonos taškus žemėlapyje.

Perkelti pele per norėdami pamatyti stoties vardą.

Tada spustelėkite, norėdami matyti oro stebėjimo ir prognozės.

Norėdami pakeisti žemėlapį: spustelėkite ant žalios mygtukų su juodo kryžiaus žemyn,; žalią mygtuką su brūkšneliu, jei norite nutolinti; arba žalių rodyklių gretimoms žemėlapius.


METAR-TAF: